Stafford, VA (22554)

3:23 AM EDT on May 29, 2015 (GMT -0400)
Park Ridge/Woods (The Wireman's) | | Change Station
CLOSE
Current Station
Personal Weather Station
Location: Stafford, VA
Elevation: 249 ft
Nearby Weather Stations

Elev 249 ft 38.46 °N, 77.45 °W | Updated 3 seconds ago

Clear
Clear
67.6 °F
Feels Like 67.6 °F
N
0.0
Wind Variable Wind from West
Gusts 0.0 mph

Today
High -- | Low -- °F
--% Chance of Precip.
Yesterday
High -- | Low -- °F
Precip. -- in
5:48 AM 8:25 PM
Waxing Gibbous, 82% visible
Pressure 30.22 in
Visibility 0.8 miles
Clouds
Dew Point 66 °F
Humidity 95%
Rainfall 0.00 in
Snow Depth Not available.
UV Not available.
Pollen 7.40 out of 12
Air Quality Not available.
Flu Activity No Activity
METAR KRMN 290715Z AUTO 00000KT 3/4SM BR VV005 19/19 A3022 RMK AO2 T01920187

More Conditions Fewer Conditions

Pressure 30.22 in
Visibility 0.8 miles
Clouds
Dew Point 66 °F
Humidity 95%
Rainfall 0.00 in
Snow Depth Not available.
UV Not available.
Pollen 7.40 out of 12
Air Quality Not available.
Flu Activity No Activity
METAR KRMN 290715Z AUTO 00000KT 3/4SM BR VV005 19/19 A3022 RMK AO2 T01920187

More Conditions Fewer Conditions

10-Day Weather Forecast

Almanac

Astronomy

May. 29, 2015 Rise Set
Actual Time
Civil Twilight
Nautical Twilight
Astronomical Twilight
Moon
Length of Visible Light
Length of Day
Tomorrow will be .
, % of the Moon is Illuminated

Today's Extremes

State Highs State Lows

Community

WunderPhotos

Upload Photos

1,825,215 photos uploaded!

WunderBlogs® & News

Nearby

Air Quality

  Air Quality AQ Index Pollutant
Not available.

Snow Depth

Station Depth Elevation

Earthquake Activity

City Distance Mag. Time & Date
Minimum magnitude displayed is 2.5.

Coastal Water Temperatures

Place Temperature

Stations

Nearby Weather Stations

Station Location Temp. Windchill Dew Point Humidity Wind Precip. Elev Updated Type